Time;durP1;ratioP1;P1;durP2;ratioP2;P2;SDS_P1;SDS_P2;PMS_P1;PMS_P2;Temp;Humidity;BMP_temperature;BMP_pressure;BME280_temperature;BME280_humidity;BME280_pressure;Samples;Min_cycle;Max_cycle;Signal;HPM_P1;HPM_P2
2022/08/07 00:01:26;;;;;;;1.57;1.47;;;;;21.40;97242.00;;;;5077505;28;20222;-72
2022/08/07 00:04:15;;;;;;;3.13;1.63;;;;;21.50;97253.00;;;;5084968;28;20726;-76
2022/08/07 00:07:06;;;;;;;2.17;1.60;;;;;21.40;97252.00;;;;5080528;28;20219;-76
2022/08/07 00:09:55;;;;;;;1.53;1.43;;;;;21.50;97252.00;;;;5078427;28;20211;-76
2022/08/07 00:13:00;;;;;;;1.67;1.57;;;;;21.50;97248.00;;;;5080079;28;20215;-76
2022/08/07 00:15:51;;;;;;;2.13;1.30;;;;;21.60;97241.00;;;;5083006;28;20617;-76
2022/08/07 00:18:40;;;;;;;1.70;1.60;;;;;21.50;97256.00;;;;5080157;28;20227;-77
2022/08/07 00:21:30;;;;;;;2.03;1.50;;;;;21.50;97259.00;;;;5078325;28;20556;-76
2022/08/07 00:24:20;;;;;;;3.57;1.43;;;;;21.40;97265.00;;;;5092557;28;20230;-78
2022/08/07 00:27:09;;;;;;;2.83;2.13;;;;;21.30;97261.00;;;;5090743;28;20279;-77
2022/08/07 00:29:58;;;;;;;2.20;1.83;;;;;21.30;97255.00;;;;5083681;28;20199;-77
2022/08/07 00:32:48;;;;;;;4.80;1.53;;;;;21.10;97261.00;;;;5075328;28;20715;-74
2022/08/07 00:35:38;;;;;;;1.00;1.00;;;;;21.20;97268.00;;;;5081841;28;20204;-75
2022/08/07 00:38:27;;;;;;;3.30;1.50;;;;;21.30;97270.00;;;;5082708;28;20203;-73
2022/08/07 00:41:22;;;;;;;2.87;2.03;;;;;21.30;97271.00;;;;5076107;28;20215;-73
2022/08/07 00:44:11;;;;;;;1.83;1.70;;;;;21.30;97271.00;;;;5074119;28;20226;-74
2022/08/07 00:47:00;;;;;;;2.67;1.70;;;;;21.20;97270.00;;;;5084874;28;20254;-73
2022/08/07 00:49:49;;;;;;;1.47;1.33;;;;;21.30;97271.00;;;;5079087;28;20721;-74
2022/08/07 00:52:38;;;;;;;2.87;1.77;;;;;21.20;97270.00;;;;5075207;28;20227;-74
2022/08/07 00:55:28;;;;;;;3.23;1.73;;;;;21.10;97275.00;;;;5079639;28;20677;-73
2022/08/07 00:58:21;;;;;;;1.87;1.50;;;;;21.10;97284.00;;;;5079385;28;20199;-74
2022/08/07 01:01:10;;;;;;;3.37;1.90;;;;;21.10;97277.00;;;;5089279;28;20199;-75
2022/08/07 01:03:59;;;;;;;1.60;1.50;;;;;21.10;97278.00;;;;5093159;22;20243;-88
2022/08/07 01:06:48;;;;;;;1.77;1.63;;;;;21.10;97280.00;;;;5089747;28;20195;-87
2022/08/07 01:09:37;;;;;;;1.90;1.80;;;;;21.10;97276.00;;;;5083898;28;20698;-86
2022/08/07 01:12:27;;;;;;;2.23;2.00;;;;;21.00;97277.00;;;;5092026;28;20192;-87
2022/08/07 01:15:20;;;;;;;3.00;1.97;;;;;20.80;97277.00;;;;5092852;28;20276;-87
2022/08/07 01:18:09;;;;;;;3.13;2.10;;;;;20.60;97283.00;;;;5081103;28;20245;-86
2022/08/07 01:21:12;;;;;;;1.70;1.60;;;;;20.30;97275.00;;;;5088422;28;20222;-86
2022/08/07 01:24:01;;;;;;;2.33;2.13;;;;;19.90;97276.00;;;;5090340;28;20226;-88
2022/08/07 01:26:51;;;;;;;3.00;2.43;;;;;19.90;97281.00;;;;5087506;28;20210;-87
2022/08/07 01:29:41;;;;;;;3.33;2.87;;;;;19.80;97277.00;;;;5079877;28;20219;-86
2022/08/07 01:32:31;;;;;;;3.20;2.10;;;;;19.60;97272.00;;;;5080412;28;20207;-88
2022/08/07 01:35:20;;;;;;;2.47;2.03;;;;;19.60;97271.00;;;;5082353;28;20191;-85
2022/08/07 01:38:11;;;;;;;2.97;2.63;;;;;19.30;97281.00;;;;5089778;28;20231;-86
2022/08/07 01:41:02;;;;;;;2.97;1.77;;;;;19.20;97286.00;;;;5083498;28;20523;-88
2022/08/07 01:43:52;;;;;;;2.53;2.33;;;;;19.30;97283.00;;;;5085707;28;20215;-87
2022/08/07 01:46:42;;;;;;;3.00;2.73;;;;;19.40;97286.00;;;;5083664;28;20203;-88
2022/08/07 01:49:31;;;;;;;2.70;2.50;;;;;19.50;97287.00;;;;5077600;28;20230;-86
2022/08/07 01:52:21;;;;;;;6.73;2.80;;;;;19.10;97283.00;;;;5081989;28;20199;-87
2022/08/07 01:55:12;;;;;;;2.00;1.90;;;;;19.40;97298.00;;;;5080238;28;20210;-86
2022/08/07 01:58:01;;;;;;;3.43;2.60;;;;;19.30;97284.00;;;;5086342;28;20200;-89
2022/08/07 02:00:55;;;;;;;2.40;2.20;;;;;19.40;97290.00;;;;5084924;28;20210;-85
2022/08/07 02:03:47;;;;;;;3.20;2.90;;;;;19.40;97292.00;;;;5084052;28;20226;-85
2022/08/07 02:06:38;;;;;;;2.63;2.40;;;;;19.30;97284.00;;;;5084434;28;20222;-86
2022/08/07 02:09:27;;;;;;;3.17;2.70;;;;;19.30;97282.00;;;;5085951;28;20211;-88
2022/08/07 02:12:19;;;;;;;2.60;2.13;;;;;19.10;97284.00;;;;5073538;28;20196;-86
2022/08/07 02:15:09;;;;;;;2.43;2.33;;;;;19.10;97271.00;;;;5081210;28;20577;-86
2022/08/07 02:18:00;;;;;;;2.73;2.53;;;;;19.30;97271.00;;;;5092483;28;20207;-86
2022/08/07 02:20:52;;;;;;;4.33;2.90;;;;;19.30;97263.00;;;;5079133;28;20206;-90
2022/08/07 02:23:41;;;;;;;4.40;3.17;;;;;19.30;97267.00;;;;5088517;28;20576;-87
2022/08/07 02:26:30;;;;;;;3.53;2.97;;;;;19.20;97264.00;;;;5084463;28;20229;-89
2022/08/07 02:29:22;;;;;;;2.90;2.70;;;;;19.10;97258.00;;;;5083592;28;20223;-88
2022/08/07 02:32:12;;;;;;;2.93;2.63;;;;;19.20;97260.00;;;;5082860;28;20210;-87
2022/08/07 02:35:03;;;;;;;3.33;3.13;;;;;19.40;97261.00;;;;5080273;28;20196;-86
2022/08/07 02:37:53;;;;;;;3.67;3.37;;;;;19.00;97266.00;;;;5072203;28;20207;-85
2022/08/07 02:40:43;;;;;;;4.33;2.67;;;;;19.10;97277.00;;;;5082081;28;20199;-91
2022/08/07 02:43:33;;;;;;;3.30;3.00;;;;;19.30;97270.00;;;;5088322;28;20268;-92
2022/08/07 02:46:26;;;;;;;2.80;2.60;;;;;19.10;97284.00;;;;5086757;28;20605;-89
2022/08/07 02:49:15;;;;;;;4.83;2.80;;;;;19.20;97277.00;;;;5085171;28;20211;-87
2022/08/07 02:52:06;;;;;;;2.93;2.73;;;;;19.30;97270.00;;;;5090585;28;20210;-86
2022/08/07 02:54:57;;;;;;;3.73;2.93;;;;;19.30;97266.00;;;;5087607;28;20203;-86
2022/08/07 02:57:57;;;;;;;3.13;2.87;;;;;19.20;97266.00;;;;5082781;28;20202;-87
2022/08/07 03:00:51;;;;;;;2.80;2.60;;;;;19.30;97258.00;;;;5089122;28;20210;-88
2022/08/07 03:03:41;;;;;;;3.77;3.47;;;;;19.10;97254.00;;;;5119999;22;20710;-79
2022/08/07 03:06:31;;;;;;;4.43;3.43;;;;;19.20;97253.00;;;;5120370;28;20202;-79
2022/08/07 03:09:21;;;;;;;6.53;3.57;;;;;19.20;97241.00;;;;5117828;28;20206;-79
2022/08/07 03:12:11;;;;;;;5.23;4.77;;;;;19.10;97248.00;;;;5120067;28;20206;-79
2022/08/07 03:15:01;;;;;;;3.33;2.87;;;;;19.00;97253.00;;;;5119371;28;20225;-78
2022/08/07 03:17:50;;;;;;;2.80;2.57;;;;;18.60;97260.00;;;;5108561;28;20198;-76
2022/08/07 03:20:41;;;;;;;3.63;2.70;;;;;18.10;97258.00;;;;5106014;28;20205;-72
2022/08/07 03:23:30;;;;;;;3.85;3.45;;;;;18.20;97265.00;;;;5112938;28;20411;-75
2022/08/07 03:26:20;;;;;;;3.50;3.20;;;;;18.50;97259.00;;;;5113451;28;20412;-77
2022/08/07 03:29:09;;;;;;;3.65;3.35;;;;;18.60;97259.00;;;;5115108;28;20419;-78
2022/08/07 03:31:59;;;;;;;3.53;3.23;;;;;18.70;97249.00;;;;5107562;28;20203;-65
2022/08/07 03:34:50;;;;;;;4.43;4.03;;;;;18.80;97252.00;;;;5106150;28;20210;-65
2022/08/07 03:37:42;;;;;;;3.50;3.20;;;;;18.90;97259.00;;;;5114700;28;20205;-77
2022/08/07 03:40:32;;;;;;;3.03;2.83;;;;;18.90;97249.00;;;;5114325;28;20202;-77
2022/08/07 03:43:21;;;;;;;4.23;3.63;;;;;18.90;97257.00;;;;5113834;28;20230;-76
2022/08/07 03:46:10;;;;;;;4.70;3.20;;;;;18.90;97255.00;;;;5119871;28;20732;-79
2022/08/07 03:49:00;;;;;;;2.67;2.47;;;;;18.90;97249.00;;;;5119446;28;20210;-79
2022/08/07 03:51:50;;;;;;;4.63;3.57;;;;;18.70;97253.00;;;;5121557;28;20195;-79
2022/08/07 03:54:40;;;;;;;4.10;3.17;;;;;18.70;97255.00;;;;5116168;28;20218;-79
2022/08/07 03:57:32;;;;;;;3.40;3.10;;;;;18.90;97241.00;;;;5120541;28;20986;-79
2022/08/07 04:00:21;;;;;;;3.93;3.33;;;;;18.80;97255.00;;;;5116048;28;20206;-78
2022/08/07 04:03:10;;;;;;;3.27;3.07;;;;;18.70;97258.00;;;;5116476;28;20249;-78
2022/08/07 04:05:59;;;;;;;6.03;3.03;;;;;18.80;97258.00;;;;5121852;28;20233;-78
2022/08/07 04:08:48;;;;;;;3.63;3.33;;;;;18.70;97255.00;;;;5124763;28;20195;-78
2022/08/07 04:11:39;;;;;;;4.20;3.83;;;;;18.80;97247.00;;;;5116831;28;20257;-79
2022/08/07 04:14:28;;;;;;;3.63;2.70;;;;;18.80;97242.00;;;;5115275;28;20223;-78
2022/08/07 04:17:18;;;;;;;3.40;3.10;;;;;18.90;97240.00;;;;5105270;28;20214;-78
2022/08/07 04:20:11;;;;;;;3.43;3.13;;;;;18.90;97244.00;;;;5116560;28;20207;-78
2022/08/07 04:23:00;;;;;;;2.77;2.57;;;;;18.90;97239.00;;;;5117729;28;20218;-78
2022/08/07 04:25:50;;;;;;;2.97;2.77;;;;;19.00;97245.00;;;;5105858;28;20638;-78
2022/08/07 04:28:41;;;;;;;3.30;3.00;;;;;18.90;97246.00;;;;5116904;28;20573;-78
2022/08/07 04:31:30;;;;;;;3.83;3.37;;;;;18.90;97244.00;;;;5116545;28;20209;-79
2022/08/07 04:34:21;;;;;;;4.03;2.90;;;;;18.90;97243.00;;;;5115931;28;20218;-78
2022/08/07 04:37:10;;;;;;;3.20;3.00;;;;;18.70;97242.00;;;;5107158;28;20205;-79
2022/08/07 04:39:59;;;;;;;3.40;3.10;;;;;18.80;97244.00;;;;5123302;28;20207;-79
2022/08/07 04:42:48;;;;;;;3.93;2.97;;;;;18.60;97241.00;;;;5112349;28;20571;-77
2022/08/07 04:45:48;;;;;;;2.60;2.40;;;;;18.70;97245.00;;;;5114925;28;20237;-78
2022/08/07 04:48:43;;;;;;;2.83;2.63;;;;;18.70;97245.00;;;;5117930;28;20521;-79
2022/08/07 04:51:37;;;;;;;3.17;2.97;;;;;18.70;97243.00;;;;5119020;28;20229;-78
2022/08/07 04:54:32;;;;;;;3.67;3.27;;;;;18.90;97244.00;;;;5116156;28;20231;-79
2022/08/07 04:57:26;;;;;;;4.57;3.00;;;;;18.80;97240.00;;;;5113582;28;20195;-75
2022/08/07 05:00:19;;;;;;;4.37;2.53;;;;;18.90;97252.00;;;;5108629;28;20308;-75
2022/08/07 05:03:17;;;;;;;3.20;2.90;;;;;19.00;97259.00;;;;5109961;28;20322;-75
2022/08/07 05:06:10;;;;;;;3.73;3.07;;;;;19.00;97258.00;;;;5110063;28;20218;-75
2022/08/07 05:09:04;;;;;;;3.33;2.90;;;;;19.10;97256.00;;;;5110331;28;20202;-75
2022/08/07 05:11:53;;;;;;;3.00;2.80;;;;;19.20;97259.00;;;;5111216;28;20201;-76
2022/08/07 05:14:44;;;;;;;3.30;3.00;;;;;19.20;97252.00;;;;5099607;28;20237;-76
2022/08/07 05:17:34;;;;;;;3.40;3.10;;;;;19.20;97244.00;;;;5097825;28;20202;-76
2022/08/07 05:20:26;;;;;;;2.60;2.40;;;;;19.30;97249.00;;;;5095151;28;20199;-77
2022/08/07 05:23:22;;;;;;;4.70;2.80;;;;;19.30;97254.00;;;;5106628;28;20234;-77
2022/08/07 05:26:14;;;;;;;2.53;2.33;;;;;19.40;97257.00;;;;5113504;28;20711;-78
2022/08/07 05:29:09;;;;;;;4.00;2.20;;;;;19.40;97261.00;;;;5111281;28;20206;-76
2022/08/07 05:31:58;;;;;;;2.40;2.20;;;;;19.40;97270.00;;;;5109782;28;20217;-78
2022/08/07 05:34:48;;;;;;;2.30;2.10;;;;;19.60;97257.00;;;;5108518;28;20690;-77
2022/08/07 05:37:40;;;;;;;2.30;2.10;;;;;19.60;97273.00;;;;5102645;28;20202;-77
2022/08/07 05:40:29;;;;;;;2.70;2.50;;;;;19.70;97271.00;;;;5105335;28;20201;-77
2022/08/07 05:43:18;;;;;;;6.33;2.07;;;;;19.50;97264.00;;;;5101708;28;20293;-78
2022/08/07 05:46:07;;;;;;;3.23;2.03;;;;;19.70;97272.00;;;;5101092;28;20230;-75
2022/08/07 05:48:57;;;;;;;2.63;2.30;;;;;20.00;97267.00;;;;5102150;28;20203;-75
2022/08/07 05:51:47;;;;;;;3.10;2.10;;;;;20.10;97286.00;;;;5096685;28;20203;-75
2022/08/07 05:54:37;;;;;;;4.67;2.43;;;;;20.10;97276.00;;;;5090261;28;20226;-76
2022/08/07 05:57:27;;;;;;;2.63;2.43;;;;;20.30;97265.00;;;;5089036;28;20198;-76
2022/08/07 06:00:17;;;;;;;1.70;1.60;;;;;20.10;97278.00;;;;5090861;28;20207;-78
2022/08/07 06:03:07;;;;;;;2.27;2.07;;;;;20.20;97288.00;;;;5095783;28;20226;-76
2022/08/07 06:05:57;;;;;;;2.97;2.23;;;;;20.50;97286.00;;;;5097712;28;20218;-77
2022/08/07 06:08:46;;;;;;;2.13;1.60;;;;;20.50;97292.00;;;;5097151;28;20214;-76
2022/08/07 06:11:36;;;;;;;3.87;2.17;;;;;20.40;97292.00;;;;5093824;28;20203;-74
2022/08/07 06:14:26;;;;;;;3.87;2.23;;;;;20.50;97283.00;;;;5098277;28;20245;-75
2022/08/07 06:17:15;;;;;;;2.63;2.40;;;;;20.80;97290.00;;;;5096984;27;20199;-75
2022/08/07 06:20:05;;;;;;;2.27;2.07;;;;;20.80;97290.00;;;;5095297;28;20198;-75
2022/08/07 06:22:55;;;;;;;3.63;2.07;;;;;21.00;97290.00;;;;5093986;28;20218;-75
2022/08/07 06:25:45;;;;;;;2.33;2.20;;;;;21.10;97291.00;;;;5096280;28;20743;-76
2022/08/07 06:28:35;;;;;;;2.63;2.00;;;;;21.00;97293.00;;;;5096099;27;20213;-74
2022/08/07 06:31:26;;;;;;;2.17;2.07;;;;;21.30;97297.00;;;;5096875;28;20206;-76
2022/08/07 06:34:16;;;;;;;2.37;2.13;;;;;21.20;97291.00;;;;5094940;28;20222;-74
2022/08/07 06:37:05;;;;;;;2.67;2.00;;;;;21.40;97303.00;;;;5096731;28;20199;-76
2022/08/07 06:39:54;;;;;;;2.33;2.00;;;;;21.60;97302.00;;;;5097436;27;20572;-76
2022/08/07 06:42:43;;;;;;;2.03;1.93;;;;;21.80;97305.00;;;;5093375;28;20214;-74
2022/08/07 06:45:34;;;;;;;2.37;1.70;;;;;22.00;97301.00;;;;5091327;28;20210;-74
2022/08/07 06:48:23;;;;;;;2.43;2.33;;;;;22.20;97306.00;;;;5097813;28;20206;-75
2022/08/07 06:51:16;;;;;;;2.40;2.20;;;;;22.40;97297.00;;;;5096903;28;20202;-75
2022/08/07 06:54:06;;;;;;;1.60;1.50;;;;;22.80;97300.00;;;;5102245;28;20225;-74
2022/08/07 06:56:55;;;;;;;3.63;1.80;;;;;23.20;97301.00;;;;5098089;28;20199;-76
2022/08/07 06:59:45;;;;;;;2.77;2.33;;;;;23.00;97301.00;;;;5105306;28;20194;-73
2022/08/07 07:02:35;;;;;;;2.00;1.80;;;;;23.30;97287.00;;;;5101606;28;20206;-77
2022/08/07 07:05:25;;;;;;;1.90;1.80;;;;;23.40;97301.00;;;;5097338;28;20195;-72
2022/08/07 07:08:14;;;;;;;3.73;1.63;;;;;23.20;97284.00;;;;5101851;28;20206;-72
2022/08/07 07:11:04;;;;;;;1.87;1.77;;;;;23.10;97288.00;;;;5103877;28;20202;-73
2022/08/07 07:13:54;;;;;;;4.00;1.77;;;;;23.60;97276.00;;;;5096656;28;20227;-75
2022/08/07 07:16:46;;;;;;;4.80;1.97;;;;;23.80;97279.00;;;;5099912;28;20622;-77
2022/08/07 07:19:40;;;;;;;1.57;1.47;;;;;23.50;97284.00;;;;5101118;28;20218;-72
2022/08/07 07:22:30;;;;;;;2.40;1.90;;;;;23.50;97267.00;;;;5093815;28;20218;-72
2022/08/07 07:25:20;;;;;;;2.67;2.27;;;;;23.80;97275.00;;;;5100394;28;20206;-73
2022/08/07 07:28:13;;;;;;;1.97;1.87;;;;;23.40;97276.00;;;;5101961;28;20253;-73
2022/08/07 07:31:05;;;;;;;1.50;1.40;;;;;23.60;97275.00;;;;5099021;28;20203;-76
2022/08/07 07:33:57;;;;;;;1.30;1.20;;;;;23.80;97284.00;;;;5097726;28;20225;-75
2022/08/07 07:36:50;;;;;;;1.87;1.43;;;;;23.30;97266.00;;;;5101693;28;20198;-69
2022/08/07 07:39:40;;;;;;;2.43;1.63;;;;;22.50;97273.00;;;;5096963;28;20218;-74
2022/08/07 07:42:29;;;;;;;1.43;1.33;;;;;22.80;97274.00;;;;5105148;28;20209;-73
2022/08/07 07:45:20;;;;;;;2.20;2.00;;;;;23.10;97275.00;;;;5100816;28;20578;-75
2022/08/07 07:48:10;;;;;;;1.43;1.33;;;;;23.50;97273.00;;;;5106405;28;20218;-74
2022/08/07 07:51:00;;;;;;;1.57;1.47;;;;;23.80;97261.00;;;;5102709;28;20214;-73
2022/08/07 07:53:51;;;;;;;1.57;1.47;;;;;23.90;97269.00;;;;5095937;28;20231;-75
2022/08/07 07:56:41;;;;;;;1.60;1.50;;;;;23.70;97258.00;;;;5116074;22;20565;-72
2022/08/07 07:59:32;;;;;;;1.90;1.50;;;;;23.80;97269.00;;;;5080088;28;20215;-74
2022/08/07 08:02:21;;;;;;;2.03;1.77;;;;;24.40;97267.00;;;;5082386;28;20585;-76
2022/08/07 08:05:12;;;;;;;1.87;1.57;;;;;24.10;97280.00;;;;5081910;28;20206;-76
2022/08/07 08:08:01;;;;;;;1.63;1.40;;;;;24.00;97269.00;;;;5073270;28;20707;-76
2022/08/07 08:10:52;;;;;;;3.30;1.63;;;;;24.40;97266.00;;;;5064361;28;20208;-74
2022/08/07 08:13:43;;;;;;;2.97;1.90;;;;;24.30;97273.00;;;;5068009;28;20215;-76
2022/08/07 08:16:34;;;;;;;2.63;1.53;;;;;24.40;97270.00;;;;5063384;28;20203;-76
2022/08/07 08:19:27;;;;;;;3.63;1.80;;;;;24.20;97269.00;;;;5067791;28;20666;-76
2022/08/07 08:28:35;;;;;;;1.60;1.50;;;;;24.40;97258.00;;;;5070146;28;20612;-77
2022/08/07 08:31:27;;;;;;;3.40;1.70;;;;;24.40;97266.00;;;;5067709;28;20842;-71
2022/08/07 08:34:18;;;;;;;1.30;1.20;;;;;24.90;97265.00;;;;5066662;28;20698;-75
2022/08/07 08:37:08;;;;;;;2.37;1.50;;;;;25.20;97265.00;;;;5068726;28;20227;-75
2022/08/07 08:39:58;;;;;;;1.53;1.20;;;;;24.50;97258.00;;;;5067571;28;20212;-71
2022/08/07 08:42:52;;;;;;;1.93;1.50;;;;;24.80;97273.00;;;;5064872;28;20207;-78
2022/08/07 08:45:48;;;;;;;2.10;1.60;;;;;25.50;97272.00;;;;5064701;28;20573;-77
2022/08/07 08:48:54;;;;;;;1.77;1.67;;;;;25.40;97266.00;;;;5061448;28;20224;-77
2022/08/07 08:51:52;;;;;;;2.70;1.27;;;;;25.70;97263.00;;;;5065291;28;20208;-77
2022/08/07 08:54:45;;;;;;;1.30;1.20;;;;;26.00;97262.00;;;;5063095;28;20197;-76
2022/08/07 08:57:37;;;;;;;1.20;1.13;;;;;26.50;97267.00;;;;5060494;28;20603;-76
2022/08/07 09:00:28;;;;;;;1.37;1.27;;;;;24.90;97245.00;;;;5062914;28;20210;-74
2022/08/07 09:03:25;;;;;;;2.37;1.23;;;;;26.60;97253.00;;;;5064286;28;20212;-77
2022/08/07 09:06:22;;;;;;;1.40;1.30;;;;;27.20;97243.00;;;;5063634;28;20204;-76
2022/08/07 09:09:21;;;;;;;1.53;1.40;;;;;26.40;97246.00;;;;5059927;28;20212;-74
2022/08/07 09:12:19;;;;;;;3.43;1.73;;;;;27.10;97248.00;;;;5059974;28;20681;-74
2022/08/07 09:15:19;;;;;;;1.60;1.50;;;;;25.80;97248.00;;;;5064558;28;20213;-73
2022/08/07 09:18:21;;;;;;;1.40;1.20;;;;;26.50;97249.00;;;;5063695;28;20573;-76
2022/08/07 09:21:17;;;;;;;1.40;1.30;;;;;27.40;97244.00;;;;5057819;28;20326;-77
2022/08/07 09:24:13;;;;;;;1.37;1.27;;;;;27.20;97249.00;;;;5064795;28;20219;-76
2022/08/07 09:27:10;;;;;;;1.70;1.60;;;;;27.40;97222.00;;;;5064657;28;20222;-76
2022/08/07 09:30:05;;;;;;;2.73;1.40;;;;;28.30;97247.00;;;;5061256;28;20211;-77
2022/08/07 09:33:09;;;;;;;1.53;1.43;;;;;27.90;97232.00;;;;5062811;28;20818;-77
2022/08/07 09:36:03;;;;;;;2.07;1.50;;;;;27.40;97226.00;;;;5064023;28;20213;-77
2022/08/07 09:39:00;;;;;;;3.20;1.10;;;;;27.90;97228.00;;;;5063640;28;20247;-76
2022/08/07 09:42:01;;;;;;;1.40;1.17;;;;;27.20;97236.00;;;;5059032;28;20210;-78
2022/08/07 09:44:58;;;;;;;2.07;1.43;;;;;27.30;97236.00;;;;5065940;28;20207;-77
2022/08/07 09:48:06;;;;;;;1.33;1.23;;;;;28.30;97226.00;;;;5063821;28;20223;-77
2022/08/07 09:51:11;;;;;;;1.33;1.23;;;;;28.20;97218.00;;;;5066020;28;20214;-76
2022/08/07 09:54:02;;;;;;;1.10;1.00;;;;;28.00;97223.00;;;;5066760;28;20215;-77
2022/08/07 09:57:11;;;;;;;1.90;1.20;;;;;28.60;97213.00;;;;5073697;28;20236;-77
2022/08/07 10:00:08;;;;;;;1.70;1.50;;;;;28.70;97205.00;;;;5068876;28;20216;-78
2022/08/07 10:03:19;;;;;;;3.70;1.70;;;;;29.50;97206.00;;;;5067082;28;20675;-77
2022/08/07 10:06:24;;;;;;;1.93;1.63;;;;;29.90;97199.00;;;;5069723;28;20217;-77
2022/08/07 10:09:39;;;;;;;2.20;1.53;;;;;29.80;97195.00;;;;5064114;28;20726;-77
2022/08/07 10:12:47;;;;;;;1.90;1.70;;;;;29.20;97187.00;;;;5066900;28;20209;-78
2022/08/07 10:15:50;;;;;;;2.80;1.90;;;;;28.90;97194.00;;;;5067579;28;20233;-77
2022/08/07 10:19:11;;;;;;;2.00;1.50;;;;;29.60;97183.00;;;;5062226;28;20276;-76
2022/08/07 10:22:11;;;;;;;1.80;1.70;;;;;30.00;97183.00;;;;5068607;28;20237;-77
2022/08/07 10:25:26;;;;;;;3.27;1.57;;;;;30.50;97174.00;;;;5065547;28;20215;-78
2022/08/07 10:28:38;;;;;;;1.23;1.13;;;;;31.60;97169.00;;;;5062844;28;20231;-78
2022/08/07 10:31:39;;;;;;;1.80;1.47;;;;;30.20;97182.00;;;;5064810;28;20668;-77
2022/08/07 10:34:36;;;;;;;1.70;1.60;;;;;29.50;97165.00;;;;5056304;28;20579;-78
2022/08/07 10:37:40;;;;;;;1.23;1.13;;;;;30.30;97180.00;;;;5066274;28;20225;-77
2022/08/07 10:40:34;;;;;;;2.33;1.80;;;;;30.70;97177.00;;;;5073341;28;20230;-78
2022/08/07 10:43:27;;;;;;;1.57;1.47;;;;;30.60;97172.00;;;;5076603;28;20197;-79
2022/08/07 10:46:20;;;;;;;2.13;2.00;;;;;30.50;97169.00;;;;5064942;28;20669;-78
2022/08/07 10:49:14;;;;;;;1.73;1.47;;;;;30.10;97176.00;;;;5072443;28;20242;-78
2022/08/07 10:52:06;;;;;;;2.17;1.67;;;;;29.70;97165.00;;;;5063667;28;20218;-78
2022/08/07 10:54:59;;;;;;;1.60;1.50;;;;;30.00;97139.00;;;;5066272;28;20202;-78
2022/08/07 10:57:57;;;;;;;1.90;1.80;;;;;30.50;97169.00;;;;5069209;28;20234;-79
2022/08/07 11:00:53;;;;;;;3.40;1.83;;;;;30.20;97176.00;;;;5072543;28;20587;-79
2022/08/07 11:03:45;;;;;;;1.90;1.80;;;;;30.70;97164.00;;;;5073317;28;20218;-79
2022/08/07 11:06:43;;;;;;;1.60;1.50;;;;;30.70;97157.00;;;;5065678;28;20212;-77
2022/08/07 11:09:38;;;;;;;3.47;1.85;;;;;30.50;97148.00;;;;5066395;28;20222;-77
2022/08/07 11:12:36;;;;;;;2.50;1.92;;;;;30.70;97163.00;;;;5069197;28;20203;-77
2022/08/07 11:15:27;;;;;;;2.20;2.00;;;;;29.70;97163.00;;;;5068812;28;20206;-77
2022/08/07 11:18:20;;;;;;;1.63;1.50;;;;;30.00;97169.00;;;;5063727;28;20224;-78
2022/08/07 11:21:14;;;;;;;2.30;1.73;;;;;30.30;97171.00;;;;5061762;28;20588;-76
2022/08/07 11:24:08;;;;;;;1.60;1.50;;;;;29.70;97168.00;;;;5064331;28;20205;-77
2022/08/07 11:27:03;;;;;;;2.47;1.40;;;;;30.00;97165.00;;;;5065311;28;20704;-77
2022/08/07 11:29:58;;;;;;;1.50;1.40;;;;;30.60;97143.00;;;;5067579;28;20230;-75
2022/08/07 11:32:54;;;;;;;3.23;1.57;;;;;31.00;97160.00;;;;5062045;28;20685;-78
2022/08/07 11:35:51;;;;;;;1.60;1.50;;;;;31.10;97150.00;;;;5063423;28;20623;-77
2022/08/07 11:38:47;;;;;;;1.83;1.58;;;;;31.60;97163.00;;;;5069998;28;20237;-78
2022/08/07 11:41:42;;;;;;;1.92;1.70;;;;;31.20;97160.00;;;;5070203;28;20207;-79
2022/08/07 11:44:40;;;;;;;1.85;1.75;;;;;31.90;97131.00;;;;5071575;28;20212;-78
2022/08/07 11:47:48;;;;;;;2.38;1.92;;;;;32.20;97132.00;;;;5070463;28;20216;-75
2022/08/07 11:50:47;;;;;;;1.63;1.52;;;;;31.80;97159.00;;;;5067329;28;20210;-78
2022/08/07 11:53:45;;;;;;;2.35;1.65;;;;;31.70;97162.00;;;;5068961;28;20201;-78
2022/08/07 11:56:48;;;;;;;1.83;1.73;;;;;31.00;97158.00;;;;5064405;28;20201;-76
2022/08/07 11:59:49;;;;;;;2.35;1.42;;;;;30.70;97161.00;;;;5063919;28;20985;-77
2022/08/07 12:03:14;;;;;;;1.90;1.80;;;;;30.40;97160.00;;;;5059873;28;20236;-80
2022/08/07 12:06:16;;;;;;;2.15;1.95;;;;;29.80;97159.00;;;;5066155;28;20663;-77
2022/08/07 12:09:09;;;;;;;1.90;1.80;;;;;29.00;97145.00;;;;5068517;28;20233;-77
2022/08/07 12:12:05;;;;;;;3.80;1.97;;;;;27.30;97146.00;;;;5063970;28;20210;-71
2022/08/07 12:14:58;;;;;;;1.57;1.47;;;;;27.20;97140.00;;;;5062097;28;20722;-70
2022/08/07 12:17:55;;;;;;;2.70;2.10;;;;;27.20;97145.00;;;;5065963;28;20913;-74
2022/08/07 12:20:48;;;;;;;2.07;1.97;;;;;27.10;97143.00;;;;5072211;28;20213;-70
2022/08/07 12:23:43;;;;;;;2.20;2.00;;;;;26.70;97146.00;;;;5072729;28;20551;-73
2022/08/07 12:26:38;;;;;;;2.63;1.90;;;;;26.70;97154.00;;;;5072490;28;20231;-78
2022/08/07 12:29:32;;;;;;;2.37;2.17;;;;;26.70;97150.00;;;;5060947;28;20716;-74
2022/08/07 12:32:27;;;;;;;2.17;2.00;;;;;26.50;97149.00;;;;5061530;28;20216;-78
2022/08/07 12:35:18;;;;;;;1.87;1.77;;;;;27.00;97132.00;;;;5072051;28;20662;-75
2022/08/07 12:38:08;;;;;;;2.23;2.03;;;;;26.90;97136.00;;;;5070617;28;20222;-72
2022/08/07 12:41:02;;;;;;;2.10;1.90;;;;;27.40;97137.00;;;;5067302;28;20204;-76
2022/08/07 12:43:52;;;;;;;2.27;2.03;;;;;27.30;97135.00;;;;5063802;28;20249;-77
2022/08/07 12:47:00;;;;;;;2.67;2.47;;;;;27.40;97136.00;;;;5064439;28;20200;-76
2022/08/07 12:49:57;;;;;;;3.33;2.33;;;;;27.60;97131.00;;;;5064164;28;20285;-76
2022/08/07 12:52:55;;;;;;;2.30;2.20;;;;;27.60;97128.00;;;;5063143;28;20220;-78
2022/08/07 12:55:47;;;;;;;2.77;2.17;;;;;27.60;97125.00;;;;5059280;28;20211;-77
2022/08/07 12:58:40;;;;;;;2.30;2.10;;;;;27.70;97121.00;;;;5060710;28;20236;-76
2022/08/07 13:01:36;;;;;;;2.27;2.07;;;;;27.60;97121.00;;;;5064718;28;20206;-76
2022/08/07 13:04:48;;;;;;;2.40;2.20;;;;;27.50;97126.00;;;;5064055;28;20215;-75
2022/08/07 13:08:06;;;;;;;2.10;1.97;;;;;27.70;97130.00;;;;5062324;28;20222;-77
2022/08/07 13:11:07;;;;;;;2.63;2.23;;;;;28.30;97123.00;;;;5070158;28;20216;-77
2022/08/07 13:14:02;;;;;;;3.10;2.90;;;;;28.50;97131.00;;;;5065962;28;20219;-78
2022/08/07 13:17:01;;;;;;;2.23;2.13;;;;;28.70;97122.00;;;;5070213;28;20244;-77
2022/08/07 13:19:54;;;;;;;2.53;2.33;;;;;28.80;97129.00;;;;5065009;28;20198;-77
2022/08/07 13:22:50;;;;;;;2.20;2.00;;;;;29.10;97118.00;;;;5063666;28;20556;-77
2022/08/07 13:25:45;;;;;;;2.37;2.17;;;;;29.20;97112.00;;;;5063974;28;20228;-77
2022/08/07 13:28:38;;;;;;;2.07;1.93;;;;;28.80;97100.00;;;;5069810;28;20220;-77
2022/08/07 13:31:33;;;;;;;3.07;1.97;;;;;29.10;97117.00;;;;5065233;28;20206;-77
2022/08/07 13:34:36;;;;;;;3.70;2.53;;;;;28.90;97111.00;;;;5084719;28;20201;-77
2022/08/07 13:37:29;;;;;;;2.23;2.03;;;;;28.80;97111.00;;;;5070763;28;20227;-77
2022/08/07 13:40:29;;;;;;;2.20;2.00;;;;;28.40;97102.00;;;;5070490;28;20200;-77
2022/08/07 13:43:21;;;;;;;2.43;1.97;;;;;29.70;97071.00;;;;5058918;28;20724;-76
2022/08/07 13:46:13;;;;;;;2.50;2.30;;;;;30.40;97094.00;;;;5063374;28;20716;-77
2022/08/07 13:49:04;;;;;;;3.10;2.83;;;;;30.60;97099.00;;;;5064416;28;20217;-76
2022/08/07 13:51:54;;;;;;;1.90;1.80;;;;;30.60;97103.00;;;;5070636;28;20208;-76
2022/08/07 13:54:44;;;;;;;2.40;2.20;;;;;30.10;97094.00;;;;5061984;28;20290;-76
2022/08/07 13:57:33;;;;;;;2.23;2.10;;;;;30.60;97107.00;;;;5084677;22;20299;-70
2022/08/07 14:00:32;;;;;;;2.33;2.13;;;;;30.80;97102.00;;;;5093696;28;20205;-68
2022/08/07 14:03:23;;;;;;;2.13;1.87;;;;;30.30;97110.00;;;;5101115;28;20197;-68
2022/08/07 14:06:13;;;;;;;2.45;2.22;;;;;29.30;97113.00;;;;5096707;28;20608;-67
2022/08/07 14:09:04;;;;;;;2.40;2.20;;;;;28.80;97102.00;;;;5079678;28;20243;-67
2022/08/07 14:11:54;;;;;;;2.20;2.00;;;;;29.10;97108.00;;;;5081342;28;20209;-70
2022/08/07 14:14:45;;;;;;;2.30;2.10;;;;;29.10;97107.00;;;;5073552;28;20689;-68
2022/08/07 14:17:38;;;;;;;2.37;2.10;;;;;29.00;97106.00;;;;5072040;28;20236;-67
2022/08/07 14:20:29;;;;;;;2.10;1.90;;;;;29.00;97100.00;;;;5081999;28;20576;-70
2022/08/07 14:23:21;;;;;;;2.27;2.07;;;;;29.00;97101.00;;;;5074764;28;20202;-69
2022/08/07 14:26:14;;;;;;;2.13;1.73;;;;;29.30;97098.00;;;;5083222;28;20235;-69
2022/08/07 14:29:05;;;;;;;1.53;1.43;;;;;29.30;97085.00;;;;5078761;28;20260;-70
2022/08/07 14:31:55;;;;;;;2.07;1.87;;;;;29.40;97094.00;;;;5082609;28;20258;-69
2022/08/07 14:34:46;;;;;;;2.37;2.17;;;;;29.70;97089.00;;;;5085362;28;20264;-70